Time;durP1;ratioP1;P1;durP2;ratioP2;P2;SDS_P1;SDS_P2;PMS_P1;PMS_P2;Temp;Humidity;BMP_temperature;BMP_pressure;BME280_temperature;BME280_humidity;BME280_pressure;Samples;Min_cycle;Max_cycle;Signal;HPM_P1;HPM_P2
2023/11/25 00:02:15;;;;;;;2.13;1.02;;;3.50;99.90;;;;;;5037014;28;20293;-63
2023/11/25 00:04:43;;;;;;;1.15;0.75;;;3.50;99.90;;;;;;5048074;28;20638;-63
2023/11/25 00:07:09;;;;;;;0.82;0.82;;;3.50;99.90;;;;;;5047684;28;20203;-63
2023/11/25 00:09:36;;;;;;;2.35;0.60;;;3.50;99.90;;;;;;5046030;28;20672;-63
2023/11/25 00:12:03;;;;;;;1.02;0.90;;;3.40;99.90;;;;;;5046982;28;20214;-63
2023/11/25 00:14:30;;;;;;;2.35;0.60;;;3.30;99.90;;;;;;5047631;28;20206;-63
2023/11/25 00:16:58;;;;;;;0.60;0.60;;;3.30;99.90;;;;;;5047270;28;20232;-64
2023/11/25 00:19:25;;;;;;;1.65;0.60;;;3.20;99.90;;;;;;5051064;28;20230;-63
2023/11/25 00:21:52;;;;;;;0.68;0.68;;;3.20;99.90;;;;;;5049298;28;20599;-64
2023/11/25 00:24:19;;;;;;;1.42;0.90;;;3.20;99.90;;;;;;5051586;28;20204;-64
2023/11/25 00:26:46;;;;;;;0.32;0.32;;;3.20;99.90;;;;;;5051099;28;20665;-64
2023/11/25 00:29:15;;;;;;;1.20;0.60;;;3.10;99.90;;;;;;5051240;28;20218;-63
2023/11/25 00:31:42;;;;;;;0.80;0.80;;;3.10;99.90;;;;;;5051590;28;20293;-63
2023/11/25 00:34:10;;;;;;;1.73;0.60;;;3.00;99.90;;;;;;5051289;28;20293;-63
2023/11/25 00:36:37;;;;;;;0.93;0.77;;;3.00;99.90;;;;;;5050872;28;20221;-62
2023/11/25 00:39:06;;;;;;;0.45;0.45;;;3.00;99.90;;;;;;5042147;28;20322;-64
2023/11/25 00:41:33;;;;;;;0.40;0.40;;;3.00;99.90;;;;;;5050270;28;20585;-63
2023/11/25 00:44:02;;;;;;;1.98;0.82;;;2.90;99.90;;;;;;5038589;28;20214;-63
2023/11/25 00:46:30;;;;;;;0.95;0.75;;;2.90;99.90;;;;;;5049916;28;20202;-63
2023/11/25 00:48:56;;;;;;;2.83;0.80;;;2.90;99.90;;;;;;5050610;28;20234;-63
2023/11/25 00:51:25;;;;;;;0.70;0.70;;;2.90;99.90;;;;;;5050887;28;20285;-64
2023/11/25 00:53:52;;;;;;;0.43;0.43;;;2.80;99.90;;;;;;5048430;28;20203;-64
2023/11/25 00:56:18;;;;;;;0.70;0.70;;;2.80;99.90;;;;;;5050984;28;20293;-64
2023/11/25 00:58:45;;;;;;;1.10;0.75;;;2.80;99.90;;;;;;5045061;28;20647;-63
2023/11/25 01:01:12;;;;;;;0.63;0.63;;;2.90;99.90;;;;;;5050339;28;20210;-62
2023/11/25 01:03:39;;;;;;;2.20;0.52;;;2.80;99.90;;;;;;5048642;28;20211;-63
2023/11/25 01:06:10;;;;;;;0.55;0.55;;;2.80;99.90;;;;;;5049737;28;20198;-64
2023/11/25 01:08:38;;;;;;;3.92;0.77;;;2.80;99.90;;;;;;5050031;28;20260;-64
2023/11/25 01:11:05;;;;;;;1.25;0.50;;;2.80;99.90;;;;;;5050636;28;20228;-63
2023/11/25 01:13:32;;;;;;;1.77;0.50;;;2.80;99.90;;;;;;5050476;28;20207;-63
2023/11/25 01:16:00;;;;;;;0.50;0.50;;;2.80;99.90;;;;;;5052949;28;20670;-63
2023/11/25 01:18:27;;;;;;;2.13;1.00;;;2.80;99.90;;;;;;5049977;28;20210;-64
2023/11/25 01:20:55;;;;;;;1.50;0.77;;;2.80;99.90;;;;;;5050329;28;20215;-64
2023/11/25 01:23:22;;;;;;;0.68;0.60;;;2.90;99.90;;;;;;5050233;28;20205;-62
2023/11/25 01:25:51;;;;;;;1.92;0.70;;;3.00;99.90;;;;;;5047552;28;20211;-64
2023/11/25 01:28:18;;;;;;;1.30;0.90;;;3.00;99.90;;;;;;5050125;28;20233;-63
2023/11/25 01:30:44;;;;;;;0.68;0.68;;;3.00;99.90;;;;;;5049098;28;20233;-64
2023/11/25 01:33:12;;;;;;;1.88;0.70;;;3.00;99.90;;;;;;5049949;28;20209;-63
2023/11/25 01:35:39;;;;;;;0.93;0.50;;;3.10;99.90;;;;;;5047761;28;20206;-64
2023/11/25 01:38:06;;;;;;;3.50;1.10;;;3.10;99.90;;;;;;5048509;28;20214;-63
2023/11/25 01:40:33;;;;;;;0.70;0.70;;;3.10;99.90;;;;;;5049994;28;20252;-63
2023/11/25 01:43:01;;;;;;;1.23;0.65;;;3.10;99.90;;;;;;5049697;28;20217;-63
2023/11/25 01:45:28;;;;;;;0.70;0.70;;;3.10;99.90;;;;;;5048870;28;20234;-63
2023/11/25 01:47:56;;;;;;;3.38;1.30;;;3.10;99.90;;;;;;5047298;28;20295;-61
2023/11/25 01:50:24;;;;;;;0.82;0.73;;;3.00;99.90;;;;;;5048467;28;20230;-64
2023/11/25 01:52:53;;;;;;;1.77;1.30;;;3.00;99.90;;;;;;5049581;28;20325;-63
2023/11/25 01:55:21;;;;;;;1.63;0.75;;;3.00;99.90;;;;;;5052601;28;20584;-63
2023/11/25 01:57:48;;;;;;;0.80;0.80;;;2.90;99.90;;;;;;5052620;28;20474;-63
2023/11/25 02:00:17;;;;;;;1.77;0.80;;;2.90;99.90;;;;;;5052652;28;20223;-63
2023/11/25 02:02:45;;;;;;;2.35;0.98;;;2.80;99.90;;;;;;5052635;28;20213;-63
2023/11/25 02:05:13;;;;;;;1.20;1.10;;;2.90;99.90;;;;;;5052938;28;20230;-62
2023/11/25 02:07:41;;;;;;;2.15;0.90;;;2.80;99.90;;;;;;5052583;28;20205;-62
2023/11/25 02:10:10;;;;;;;1.25;0.75;;;2.80;99.90;;;;;;5052678;28;20230;-64
2023/11/25 02:12:38;;;;;;;4.82;0.80;;;2.80;99.90;;;;;;5052620;28;20641;-63
2023/11/25 02:15:11;;;;;;;0.90;0.90;;;2.80;99.90;;;;;;5052501;28;20676;-63
2023/11/25 02:17:42;;;;;;;0.63;0.63;;;2.70;99.90;;;;;;5052188;28;20695;-63
2023/11/25 02:20:10;;;;;;;1.17;0.90;;;2.80;99.90;;;;;;5052629;28;20784;-63
2023/11/25 02:22:37;;;;;;;0.50;0.50;;;2.80;99.90;;;;;;5051895;28;20570;-63
2023/11/25 02:25:07;;;;;;;1.02;0.93;;;2.80;99.90;;;;;;5052025;28;20554;-64
2023/11/25 02:27:35;;;;;;;1.65;1.52;;;2.80;99.90;;;;;;5053569;28;20268;-64
2023/11/25 02:30:05;;;;;;;1.67;0.90;;;2.70;99.90;;;;;;5050503;28;20229;-64
2023/11/25 02:32:34;;;;;;;0.73;0.73;;;2.70;99.90;;;;;;5051890;28;20276;-64
2023/11/25 02:35:01;;;;;;;1.40;0.85;;;2.60;99.90;;;;;;5049150;28;20664;-63
2023/11/25 02:37:28;;;;;;;4.60;1.00;;;2.60;99.90;;;;;;5051678;28;20231;-62
2023/11/25 02:39:54;;;;;;;0.73;0.73;;;2.60;99.90;;;;;;5051727;28;20716;-63
2023/11/25 02:42:22;;;;;;;2.15;0.80;;;2.60;99.90;;;;;;5049490;28;20203;-62
2023/11/25 02:44:49;;;;;;;1.40;0.80;;;2.50;99.90;;;;;;5050089;28;20245;-61
2023/11/25 02:47:16;;;;;;;1.40;1.27;;;2.50;99.90;;;;;;5050384;28;20634;-63
2023/11/25 02:49:43;;;;;;;3.22;1.20;;;2.50;99.90;;;;;;5050190;28;20233;-62
2023/11/25 02:52:10;;;;;;;1.65;0.60;;;2.50;99.90;;;;;;5051524;28;20305;-62
2023/11/25 02:54:37;;;;;;;0.80;0.80;;;2.50;99.90;;;;;;5051491;28;20301;-62
2023/11/25 02:57:07;;;;;;;1.33;0.80;;;2.50;99.90;;;;;;5051337;28;20588;-62
2023/11/25 02:59:35;;;;;;;1.15;0.85;;;2.40;99.90;;;;;;5051502;28;20230;-62
2023/11/25 03:02:09;;;;;;;5.88;1.05;;;2.40;99.90;;;;;;5051761;28;20206;-62
2023/11/25 03:04:41;;;;;;;1.20;1.10;;;2.40;99.90;;;;;;5051800;28;20617;-62
2023/11/25 03:07:08;;;;;;;5.70;1.13;;;2.40;99.90;;;;;;5051391;28;20293;-62
2023/11/25 03:09:36;;;;;;;1.00;1.00;;;2.30;99.90;;;;;;5051432;28;20771;-63
2023/11/25 03:12:03;;;;;;;1.40;0.88;;;2.30;99.90;;;;;;5051767;28;20215;-62
2023/11/25 03:14:31;;;;;;;0.70;0.70;;;2.30;99.90;;;;;;5051556;28;20644;-61
2023/11/25 03:16:59;;;;;;;1.38;0.55;;;2.30;99.90;;;;;;5050948;28;20244;-61
2023/11/25 03:19:26;;;;;;;2.97;1.10;;;2.30;99.90;;;;;;5051289;28;20230;-61
2023/11/25 03:21:53;;;;;;;1.05;0.80;;;2.30;99.90;;;;;;5051135;28;20225;-63
2023/11/25 03:24:24;;;;;;;3.35;2.05;;;2.30;99.90;;;;;;5051384;28;20264;-62
2023/11/25 03:26:50;;;;;;;2.00;1.00;;;2.20;99.90;;;;;;5051118;28;20207;-62
2023/11/25 03:29:18;;;;;;;1.00;1.00;;;2.20;99.90;;;;;;5051283;28;20227;-62
2023/11/25 03:31:45;;;;;;;0.75;0.75;;;2.20;99.90;;;;;;5051250;28;20260;-62
2023/11/25 03:34:13;;;;;;;3.03;1.10;;;2.20;99.90;;;;;;5051359;28;20318;-63
2023/11/25 03:36:40;;;;;;;1.00;0.98;;;2.10;99.90;;;;;;5050611;28;20228;-62
2023/11/25 03:39:09;;;;;;;0.98;0.80;;;2.10;99.90;;;;;;5051383;28;20241;-62
2023/11/25 03:41:36;;;;;;;1.95;0.90;;;2.10;99.90;;;;;;5051342;28;20206;-63
2023/11/25 03:44:03;;;;;;;0.80;0.80;;;2.10;99.90;;;;;;5051019;28;20205;-62
2023/11/25 03:46:30;;;;;;;1.23;0.77;;;2.10;99.90;;;;;;5050749;28;20206;-63
2023/11/25 03:48:56;;;;;;;0.80;0.80;;;2.10;99.90;;;;;;5050629;28;20774;-61
2023/11/25 03:51:25;;;;;;;1.00;1.00;;;2.10;99.90;;;;;;5050926;28;20291;-62
2023/11/25 03:53:52;;;;;;;1.48;0.85;;;2.00;99.90;;;;;;5054015;28;20584;-62
2023/11/25 03:56:19;;;;;;;0.80;0.80;;;2.10;99.90;;;;;;5055185;28;20216;-63
2023/11/25 03:58:46;;;;;;;5.88;1.00;;;2.00;99.90;;;;;;5055033;28;20234;-63
2023/11/25 04:01:12;;;;;;;2.65;1.00;;;2.00;99.90;;;;;;5055081;28;20210;-63
2023/11/25 04:03:39;;;;;;;1.23;1.13;;;2.00;99.90;;;;;;5054980;28;20210;-62
2023/11/25 04:06:07;;;;;;;2.28;1.05;;;2.00;99.90;;;;;;5055050;28;20672;-62
2023/11/25 04:08:35;;;;;;;1.70;1.15;;;2.00;99.90;;;;;;5054873;28;20313;-63
2023/11/25 04:11:05;;;;;;;1.95;0.82;;;2.00;99.90;;;;;;5054021;28;20221;-62
2023/11/25 04:13:30;;;;;;;1.42;1.27;;;1.90;99.90;;;;;;5054780;28;20210;-63
2023/11/25 04:15:59;;;;;;;1.50;1.07;;;1.90;99.90;;;;;;5054786;28;20259;-63
2023/11/25 04:18:26;;;;;;;7.50;1.63;;;1.90;99.90;;;;;;5054411;28;20221;-63
2023/11/25 04:20:53;;;;;;;2.17;1.10;;;1.90;99.90;;;;;;5054586;28;20241;-62
2023/11/25 04:23:20;;;;;;;1.48;1.38;;;1.90;99.90;;;;;;5054524;28;20206;-62
2023/11/25 04:25:49;;;;;;;3.35;1.55;;;1.90;99.90;;;;;;5054770;28;20309;-62
2023/11/25 04:28:16;;;;;;;5.32;1.75;;;1.90;99.90;;;;;;5054086;28;20206;-62
2023/11/25 04:30:43;;;;;;;0.88;0.80;;;1.90;99.90;;;;;;5054322;28;20202;-62
2023/11/25 04:33:14;;;;;;;3.08;1.40;;;1.80;99.90;;;;;;5053961;28;20214;-61
2023/11/25 04:35:41;;;;;;;1.35;1.17;;;1.80;99.90;;;;;;5054241;28;20615;-63
2023/11/25 04:38:08;;;;;;;2.00;1.20;;;1.80;99.90;;;;;;5054070;28;20226;-62
2023/11/25 04:40:35;;;;;;;2.15;1.83;;;1.80;99.90;;;;;;5054337;28;20202;-62
2023/11/25 04:43:03;;;;;;;2.33;1.70;;;1.80;99.90;;;;;;5054491;28;20210;-62
2023/11/25 04:45:30;;;;;;;2.50;1.70;;;1.80;99.90;;;;;;5054071;28;20206;-62
2023/11/25 04:47:57;;;;;;;2.53;2.00;;;1.80;99.90;;;;;;5053878;28;20201;-63
2023/11/25 04:50:26;;;;;;;3.20;1.33;;;1.80;99.90;;;;;;5053972;28;20261;-62
2023/11/25 04:52:53;;;;;;;1.75;1.10;;;1.80;99.90;;;;;;5054305;28;20206;-63
2023/11/25 04:55:21;;;;;;;2.38;1.75;;;1.70;99.90;;;;;;5054189;28;20305;-62
2023/11/25 04:57:49;;;;;;;3.72;1.27;;;1.70;99.90;;;;;;5053592;28;20234;-63
2023/11/25 05:00:18;;;;;;;3.85;1.65;;;1.70;99.90;;;;;;5053954;28;20227;-62
2023/11/25 05:02:44;;;;;;;1.40;1.30;;;1.70;99.90;;;;;;5053918;28;20239;-62
2023/11/25 05:05:11;;;;;;;2.60;1.67;;;1.60;99.90;;;;;;5054002;28;20585;-62
2023/11/25 05:07:38;;;;;;;4.22;1.48;;;1.60;99.90;;;;;;5053771;28;20198;-62
2023/11/25 05:10:06;;;;;;;1.75;1.00;;;1.50;99.90;;;;;;5053803;28;20253;-63
2023/11/25 05:12:33;;;;;;;0.80;0.80;;;1.40;99.90;;;;;;5053789;28;20210;-63
2023/11/25 05:14:59;;;;;;;1.58;1.25;;;1.40;99.90;;;;;;5053472;28;20326;-62
2023/11/25 05:17:27;;;;;;;1.37;1.27;;;1.30;99.90;;;;;;5053499;28;20757;-62
2023/11/25 05:19:54;;;;;;;2.38;0.90;;;1.30;99.90;;;;;;5053503;28;21009;-62
2023/11/25 05:22:21;;;;;;;1.17;1.08;;;1.20;99.90;;;;;;5053707;28;20209;-62
2023/11/25 05:24:49;;;;;;;0.80;0.80;;;1.20;99.90;;;;;;5053673;28;20210;-62
2023/11/25 05:27:16;;;;;;;3.53;1.20;;;1.10;99.90;;;;;;5053364;28;20210;-62
2023/11/25 05:29:43;;;;;;;2.65;1.60;;;1.10;99.90;;;;;;5053272;28;20281;-62
2023/11/25 05:32:10;;;;;;;3.35;1.40;;;1.10;99.90;;;;;;5053651;28;20225;-63
2023/11/25 05:34:40;;;;;;;2.53;0.95;;;1.10;99.90;;;;;;5053528;28;20218;-62
2023/11/25 05:37:07;;;;;;;5.18;1.30;;;1.00;99.90;;;;;;5053225;28;20586;-62
2023/11/25 05:39:35;;;;;;;1.35;1.25;;;1.00;99.90;;;;;;5053347;28;20237;-62
2023/11/25 05:42:05;;;;;;;1.95;1.10;;;1.00;99.90;;;;;;5053257;28;20611;-62
2023/11/25 05:44:31;;;;;;;0.93;0.90;;;1.00;99.90;;;;;;5053109;28;20236;-62
2023/11/25 05:46:58;;;;;;;2.35;1.38;;;1.00;99.90;;;;;;5053131;28;20242;-63
2023/11/25 05:49:25;;;;;;;2.20;1.40;;;1.10;99.90;;;;;;5052948;28;20230;-63
2023/11/25 05:51:53;;;;;;;2.22;2.03;;;1.10;99.90;;;;;;5053071;28;20302;-62
2023/11/25 05:54:20;;;;;;;2.05;1.95;;;1.10;99.90;;;;;;5053055;28;20211;-62
2023/11/25 05:56:48;;;;;;;2.03;1.55;;;1.10;99.90;;;;;;5052596;28;20206;-62
2023/11/25 05:59:16;;;;;;;2.22;2.00;;;1.10;99.90;;;;;;5052958;28;20269;-61
2023/11/25 06:01:43;;;;;;;1.55;1.40;;;1.10;99.90;;;;;;5052961;28;20210;-62
2023/11/25 06:04:10;;;;;;;1.50;1.40;;;1.20;99.90;;;;;;5052847;28;20684;-63
2023/11/25 06:06:38;;;;;;;1.33;1.20;;;1.20;99.90;;;;;;5052464;28;20214;-62
2023/11/25 06:09:11;;;;;;;4.13;1.40;;;1.30;99.90;;;;;;5052618;28;20250;-62
2023/11/25 06:11:38;;;;;;;3.72;2.00;;;1.40;99.90;;;;;;5052822;28;20619;-62
2023/11/25 06:14:06;;;;;;;4.65;1.63;;;1.40;99.90;;;;;;5052570;28;20301;-61
2023/11/25 06:16:33;;;;;;;1.55;1.45;;;1.40;99.90;;;;;;5051849;28;20210;-63
2023/11/25 06:19:00;;;;;;;1.27;1.20;;;1.50;99.90;;;;;;5052421;28;20226;-63
2023/11/25 06:21:27;;;;;;;3.75;1.42;;;1.60;99.90;;;;;;5052487;28;20233;-61
2023/11/25 06:23:55;;;;;;;5.15;2.28;;;1.60;99.90;;;;;;5052108;28;20206;-63
2023/11/25 06:26:23;;;;;;;3.47;1.90;;;1.60;99.90;;;;;;5052263;28;20213;-61
2023/11/25 06:28:50;;;;;;;2.47;1.80;;;1.70;99.90;;;;;;5052378;28;20226;-63
2023/11/25 06:31:17;;;;;;;4.40;2.08;;;1.80;99.90;;;;;;5052120;28;20681;-63
2023/11/25 06:33:45;;;;;;;4.10;3.75;;;1.80;99.90;;;;;;5052202;28;20203;-62
2023/11/25 06:36:12;;;;;;;2.83;2.63;;;1.80;99.90;;;;;;5051987;28;20276;-62
2023/11/25 06:38:39;;;;;;;8.80;2.65;;;1.80;99.90;;;;;;5051945;28;20681;-62
2023/11/25 06:41:08;;;;;;;2.33;2.10;;;1.80;99.90;;;;;;5052151;28;20210;-62
2023/11/25 06:43:37;;;;;;;6.03;3.10;;;1.80;99.90;;;;;;5052002;28;20206;-62
2023/11/25 06:46:05;;;;;;;2.70;2.50;;;1.90;99.90;;;;;;5051760;28;20240;-62
2023/11/25 06:48:31;;;;;;;3.60;2.80;;;1.90;99.90;;;;;;5051329;28;20227;-62
2023/11/25 06:50:59;;;;;;;3.90;2.50;;;1.80;99.90;;;;;;5051667;28;20245;-62
2023/11/25 06:53:26;;;;;;;4.30;2.65;;;1.80;99.90;;;;;;5051906;28;20202;-62
2023/11/25 06:55:53;;;;;;;4.18;2.28;;;1.90;99.90;;;;;;5051731;28;20209;-62
2023/11/25 06:58:21;;;;;;;6.72;6.13;;;1.80;99.90;;;;;;5051226;28;20739;-62
2023/11/25 07:00:49;;;;;;;5.18;3.60;;;1.80;99.90;;;;;;5051562;28;20567;-61
2023/11/25 07:03:16;;;;;;;5.82;3.60;;;1.80;99.90;;;;;;5051514;28;20202;-62
2023/11/25 07:05:43;;;;;;;4.75;2.80;;;1.80;99.90;;;;;;5051333;28;20676;-63
2023/11/25 07:08:10;;;;;;;3.70;3.40;;;1.80;99.90;;;;;;5051351;28;20291;-62
2023/11/25 07:10:38;;;;;;;11.25;6.82;;;1.80;99.90;;;;;;5051528;28;20293;-63
2023/11/25 07:13:05;;;;;;;9.77;5.90;;;1.80;99.90;;;;;;5051421;28;20234;-62
2023/11/25 07:15:32;;;;;;;8.93;5.38;;;1.80;99.90;;;;;;5051169;28;20206;-62
2023/11/25 07:18:03;;;;;;;5.20;3.83;;;1.80;99.90;;;;;;5050968;28;20313;-63
2023/11/25 07:20:31;;;;;;;4.93;3.15;;;1.80;99.90;;;;;;5051467;28;20234;-63
2023/11/25 07:22:59;;;;;;;3.60;2.10;;;1.80;99.90;;;;;;5051196;28;20202;-63
2023/11/25 07:25:27;;;;;;;3.70;3.00;;;1.80;99.90;;;;;;5051394;28;20289;-63
2023/11/25 07:27:54;;;;;;;6.00;3.13;;;1.80;99.90;;;;;;5050133;28;20297;-62
2023/11/25 07:30:21;;;;;;;5.18;3.10;;;1.90;99.90;;;;;;5051124;28;20230;-63
2023/11/25 07:32:48;;;;;;;2.88;2.75;;;1.90;99.90;;;;;;5051104;28;20220;-63
2023/11/25 07:35:16;;;;;;;3.53;3.22;;;1.90;99.90;;;;;;5051313;28;20293;-63
2023/11/25 07:37:43;;;;;;;6.82;3.70;;;1.90;99.90;;;;;;5050897;28;20248;-63
2023/11/25 07:40:14;;;;;;;8.80;4.53;;;1.90;99.90;;;;;;5051044;28;20284;-63
2023/11/25 07:42:41;;;;;;;4.38;3.88;;;1.90;99.90;;;;;;5050985;28;20214;-63
2023/11/25 07:45:10;;;;;;;4.07;3.67;;;2.00;99.90;;;;;;5050781;28;20211;-63
2023/11/25 07:47:37;;;;;;;3.85;3.40;;;2.00;99.90;;;;;;5050860;28;20214;-62
2023/11/25 07:50:04;;;;;;;3.50;3.28;;;2.10;99.90;;;;;;5050761;28;20248;-63
2023/11/25 07:52:32;;;;;;;3.85;3.55;;;2.10;99.90;;;;;;5050947;28;20297;-63
2023/11/25 07:54:59;;;;;;;6.13;3.58;;;2.30;99.90;;;;;;5050864;28;20220;-63
2023/11/25 07:57:26;;;;;;;6.10;4.22;;;2.30;99.90;;;;;;5050577;28;20836;-63
2023/11/25 07:59:53;;;;;;;5.78;4.13;;;2.40;99.90;;;;;;5050695;28;20237;-63
2023/11/25 08:02:20;;;;;;;3.88;3.58;;;2.50;99.90;;;;;;5050813;28;20297;-63
2023/11/25 08:04:47;;;;;;;4.53;3.17;;;2.60;99.90;;;;;;5050898;28;20585;-62
2023/11/25 08:07:14;;;;;;;5.05;4.13;;;2.60;99.90;;;;;;5050691;28;20206;-63
2023/11/25 08:09:43;;;;;;;4.78;4.38;;;2.70;99.90;;;;;;5050732;28;20245;-62
2023/11/25 08:12:10;;;;;;;4.40;3.85;;;2.80;99.90;;;;;;5050307;28;20289;-63
2023/11/25 08:14:36;;;;;;;4.68;4.35;;;2.90;99.90;;;;;;5050512;28;20217;-63
2023/11/25 08:17:04;;;;;;;5.55;4.85;;;3.00;99.90;;;;;;5050493;28;20637;-62
2023/11/25 08:19:31;;;;;;;5.03;4.53;;;3.00;99.90;;;;;;5050647;28;20814;-63
2023/11/25 08:21:58;;;;;;;4.20;3.80;;;3.00;99.90;;;;;;5049132;28;20234;-63
2023/11/25 08:24:25;;;;;;;5.95;4.20;;;3.10;99.90;;;;;;5050218;28;20691;-63
2023/11/25 08:26:53;;;;;;;6.03;5.38;;;3.10;99.90;;;;;;5049977;28;20302;-63
2023/11/25 08:29:20;;;;;;;6.15;4.82;;;3.20;99.90;;;;;;5050611;28;20223;-63
2023/11/25 08:31:47;;;;;;;7.45;6.03;;;3.20;99.90;;;;;;5050377;28;20209;-63
2023/11/25 08:34:14;;;;;;;15.60;5.03;;;3.20;99.90;;;;;;5049073;28;20206;-62
2023/11/25 08:36:52;;;;;;;6.72;4.50;;;3.20;99.90;;;;;;5049426;28;20293;-63
2023/11/25 08:39:20;;;;;;;3.83;3.45;;;3.20;99.90;;;;;;5049510;28;20226;-63
2023/11/25 08:41:47;;;;;;;5.28;4.00;;;3.20;99.90;;;;;;5054286;28;20238;-63
2023/11/25 08:44:16;;;;;;;6.00;4.00;;;3.20;99.90;;;;;;5053650;28;20207;-64
2023/11/25 08:46:43;;;;;;;6.72;4.85;;;3.30;99.90;;;;;;5048664;28;20213;-63
2023/11/25 08:49:13;;;;;;;8.15;5.53;;;3.30;99.90;;;;;;5052485;28;20230;-63
2023/11/25 08:51:41;;;;;;;9.93;5.43;;;3.30;99.90;;;;;;5053379;28;20206;-62
2023/11/25 08:54:08;;;;;;;6.00;4.68;;;3.30;99.90;;;;;;5049875;28;20293;-63
2023/11/25 08:56:35;;;;;;;9.52;6.40;;;3.40;99.90;;;;;;5049834;28;20580;-63
2023/11/25 08:59:02;;;;;;;5.78;4.30;;;3.40;99.90;;;;;;5052050;28;20827;-63
2023/11/25 09:01:39;;;;;;;7.60;4.80;;;3.40;99.90;;;;;;5053030;28;20198;-63
2023/11/25 09:04:07;;;;;;;6.65;3.67;;;3.40;99.90;;;;;;5052284;28;20210;-63
2023/11/25 09:06:36;;;;;;;5.53;4.90;;;3.40;99.90;;;;;;5046514;28;20318;-62
2023/11/25 09:09:04;;;;;;;6.20;4.43;;;3.50;99.90;;;;;;5054240;28;20222;-63
2023/11/25 09:11:31;;;;;;;6.55;4.82;;;3.50;99.90;;;;;;5052568;28;20203;-63
2023/11/25 09:13:58;;;;;;;9.20;4.18;;;3.50;99.90;;;;;;5052062;28;20314;-62
2023/11/25 09:16:26;;;;;;;6.80;4.57;;;3.50;99.90;;;;;;5052192;28;20688;-64
2023/11/25 09:18:56;;;;;;;4.30;3.72;;;3.50;99.90;;;;;;5052017;28;20329;-62
2023/11/25 09:21:24;;;;;;;5.15;3.85;;;3.60;99.90;;;;;;5052488;28;20202;-62
2023/11/25 09:23:50;;;;;;;7.18;4.68;;;3.60;99.90;;;;;;5051956;28;20310;-62
2023/11/25 09:26:20;;;;;;;6.82;4.03;;;3.70;99.90;;;;;;5051993;28;20368;-63
2023/11/25 09:28:47;;;;;;;4.80;3.90;;;3.70;99.90;;;;;;5051612;28;20313;-63
2023/11/25 09:31:14;;;;;;;8.18;4.57;;;3.70;99.90;;;;;;5051756;28;20209;-63
2023/11/25 09:33:41;;;;;;;7.63;4.53;;;3.70;99.90;;;;;;5053057;28;20214;-62
2023/11/25 09:36:10;;;;;;;3.65;3.35;;;3.70;99.90;;;;;;5052155;28;20225;-63
2023/11/25 09:38:37;;;;;;;6.45;4.20;;;3.70;99.90;;;;;;5052357;28;20245;-63
2023/11/25 09:41:05;;;;;;;4.03;3.70;;;3.80;99.90;;;;;;5052337;28;20206;-63
2023/11/25 09:43:32;;;;;;;8.35;4.40;;;3.80;99.90;;;;;;5051377;28;20202;-63
2023/11/25 09:46:00;;;;;;;8.30;4.55;;;3.80;99.90;;;;;;5052141;28;20285;-63
2023/11/25 09:48:27;;;;;;;7.57;4.10;;;3.90;99.90;;;;;;5052057;28;20241;-63
2023/11/25 09:50:54;;;;;;;9.38;5.10;;;3.90;99.90;;;;;;5051323;28;20289;-63
2023/11/25 09:53:28;;;;;;;11.30;4.35;;;3.90;99.90;;;;;;5052377;28;20202;-63
2023/11/25 09:56:01;;;;;;;5.15;4.63;;;4.00;99.90;;;;;;5052097;28;20221;-62
2023/11/25 09:58:29;;;;;;;8.45;6.35;;;4.00;99.90;;;;;;5051387;28;20206;-63
2023/11/25 10:00:57;;;;;;;7.20;5.18;;;4.10;99.90;;;;;;5051947;28;20709;-63
2023/11/25 10:03:26;;;;;;;8.40;4.50;;;4.10;99.90;;;;;;5052095;28;20226;-63
2023/11/25 10:05:53;;;;;;;7.18;4.03;;;4.10;99.90;;;;;;5052028;28;20213;-63
2023/11/25 10:08:20;;;;;;;6.63;4.55;;;4.10;99.90;;;;;;5051568;28;20207;-63
2023/11/25 10:11:01;;;;;;;5.93;3.78;;;4.20;99.90;;;;;;5051739;28;20207;-63
2023/11/25 10:13:32;;;;;;;8.18;4.40;;;4.20;99.90;;;;;;5037570;28;20207;-63
2023/11/25 10:16:00;;;;;;;9.07;4.07;;;4.30;99.90;;;;;;5051758;28;20198;-62
2023/11/25 10:18:27;;;;;;;7.47;3.65;;;4.40;99.90;;;;;;5051327;28;20703;-63
2023/11/25 10:20:57;;;;;;;5.97;3.65;;;4.40;99.90;;;;;;5051552;28;20209;-62
2023/11/25 10:23:25;;;;;;;14.82;5.47;;;4.50;99.90;;;;;;5051407;28;20199;-62
2023/11/25 10:25:52;;;;;;;11.50;4.97;;;4.50;99.90;;;;;;5051520;28;20213;-63
2023/11/25 10:28:21;;;;;;;9.18;3.75;;;4.50;99.90;;;;;;5050987;28;20282;-62
2023/11/25 10:30:57;;;;;;;7.90;4.05;;;4.50;99.90;;;;;;5051200;28;20203;-62
2023/11/25 10:33:27;;;;;;;6.82;3.35;;;4.60;99.90;;;;;;5036563;28;20257;-64
2023/11/25 10:35:54;;;;;;;7.82;3.92;;;4.70;99.90;;;;;;5050944;28;20593;-63
2023/11/25 10:38:26;;;;;;;6.75;3.40;;;4.70;99.90;;;;;;5050703;28;20217;-63
2023/11/25 10:40:59;;;;;;;11.43;5.00;;;4.70;99.90;;;;;;5051006;28;20276;-63
2023/11/25 10:43:29;;;;;;;4.68;4.20;;;4.70;99.90;;;;;;5051166;28;20672;-63
2023/11/25 10:46:02;;;;;;;7.97;3.55;;;4.70;99.90;;;;;;5050966;28;20210;-63
2023/11/25 10:48:29;;;;;;;4.28;3.88;;;4.70;99.90;;;;;;5050384;28;20233;-64
2023/11/25 10:50:57;;;;;;;4.93;4.28;;;4.70;99.90;;;;;;5050832;28;20285;-64
2023/11/25 10:53:29;;;;;;;9.60;4.00;;;4.70;99.90;;;;;;5050989;28;20195;-62
2023/11/25 10:55:58;;;;;;;6.40;3.88;;;4.70;99.90;;;;;;5050535;28;20680;-63
2023/11/25 10:58:25;;;;;;;3.47;3.15;;;4.70;99.90;;;;;;5049732;28;20610;-63
2023/11/25 11:00:54;;;;;;;5.97;3.80;;;4.70;99.90;;;;;;5050227;28;20708;-63
2023/11/25 11:03:22;;;;;;;11.27;4.95;;;4.70;99.90;;;;;;5050616;28;20204;-62
2023/11/25 11:05:55;;;;;;;8.70;3.30;;;4.70;99.90;;;;;;5048696;28;20202;-63
2023/11/25 11:08:25;;;;;;;6.03;3.10;;;4.70;99.90;;;;;;5049940;28;20680;-63
2023/11/25 11:10:56;;;;;;;8.85;3.50;;;4.70;99.90;;;;;;5050295;28;20867;-63
2023/11/25 11:13:29;;;;;;;7.38;3.47;;;4.70;99.90;;;;;;5050169;28;20418;-62
2023/11/25 11:16:03;;;;;;;5.57;4.43;;;4.70;99.90;;;;;;5050665;28;20293;-64
2023/11/25 11:18:35;;;;;;;7.82;3.55;;;4.70;99.90;;;;;;5050057;28;20289;-63
2023/11/25 11:21:03;;;;;;;4.97;3.50;;;4.60;99.90;;;;;;5050289;28;20665;-62
2023/11/25 11:23:32;;;;;;;13.23;5.38;;;4.60;99.90;;;;;;5050331;28;20205;-63
2023/11/25 11:26:09;;;;;;;12.23;4.70;;;4.50;99.90;;;;;;5050163;28;20205;-62
2023/11/25 11:28:44;;;;;;;3.83;3.17;;;4.50;99.90;;;;;;5049911;28;20309;-63
2023/11/25 11:32:01;;;;;;;6.05;3.47;;;4.50;99.90;;;;;;5050225;28;20277;-62
2023/11/25 11:34:31;;;;;;;4.75;2.88;;;4.40;99.90;;;;;;5038849;28;20233;-63
2023/11/25 11:36:58;;;;;;;8.15;3.50;;;4.40;99.90;;;;;;5049943;28;20202;-63
2023/11/25 11:39:38;;;;;;;11.27;4.35;;;4.40;99.90;;;;;;5049683;28;20317;-62
2023/11/25 11:42:25;;;;;;;8.40;5.55;;;4.30;99.90;;;;;;5049849;28;20583;-60
2023/11/25 11:45:11;;;;;;;7.10;4.45;;;4.30;99.90;;;;;;5049642;28;20699;-61
2023/11/25 11:47:39;;;;;;;5.63;3.63;;;4.30;99.90;;;;;;5049901;28;20285;-62
2023/11/25 11:50:09;;;;;;;8.25;2.88;;;4.30;99.90;;;;;;5049707;28;20226;-62
2023/11/25 11:52:45;;;;;;;5.78;2.60;;;4.30;99.90;;;;;;5049947;28;20285;-62
2023/11/25 11:55:35;;;;;;;3.90;2.92;;;4.30;99.90;;;;;;5049526;28;20297;-62
2023/11/25 11:58:06;;;;;;;11.07;4.53;;;4.30;99.90;;;;;;5049563;28;20203;-62
2023/11/25 12:00:37;;;;;;;6.15;4.65;;;4.30;99.90;;;;;;5048008;28;20232;-63
2023/11/25 12:03:04;;;;;;;6.03;3.70;;;4.30;99.90;;;;;;5049370;28;20202;-62
2023/11/25 12:05:32;;;;;;;9.63;4.45;;;4.30;99.90;;;;;;5049061;28;20672;-62
2023/11/25 12:08:00;;;;;;;9.88;3.40;;;4.30;99.90;;;;;;5049265;28;20556;-61
2023/11/25 12:10:27;;;;;;;6.70;3.75;;;4.30;99.90;;;;;;5049790;28;20596;-63
2023/11/25 12:12:54;;;;;;;8.07;4.57;;;4.30;99.90;;;;;;5049736;28;20297;-62
2023/11/25 12:15:22;;;;;;;10.93;3.55;;;4.40;99.90;;;;;;5053164;28;20213;-63
2023/11/25 12:17:49;;;;;;;7.15;3.85;;;4.50;99.90;;;;;;5053467;28;20206;-62
2023/11/25 12:20:16;;;;;;;10.98;4.70;;;4.50;99.90;;;;;;5053455;28;20700;-62
2023/11/25 12:22:45;;;;;;;12.25;3.40;;;4.60;99.90;;;;;;5053899;28;20202;-62
2023/11/25 12:25:14;;;;;;;11.32;4.10;;;4.70;99.90;;;;;;5053565;28;20289;-63
2023/11/25 12:27:48;;;;;;;5.13;3.63;;;4.80;99.90;;;;;;5053255;28;20275;-62
2023/11/25 12:30:15;;;;;;;3.30;2.80;;;4.90;99.90;;;;;;5053303;28;20221;-62
2023/11/25 12:32:43;;;;;;;10.57;3.17;;;5.10;99.90;;;;;;5053023;28;20228;-62
2023/11/25 12:35:13;;;;;;;4.07;2.70;;;5.20;99.90;;;;;;5053259;28;20210;-62
2023/11/25 12:37:42;;;;;;;6.15;4.07;;;5.30;99.90;;;;;;5052929;28;20210;-61
2023/11/25 12:40:23;;;;;;;4.18;3.40;;;5.40;99.90;;;;;;5053147;28;20230;-63
2023/11/25 12:42:52;;;;;;;8.68;3.10;;;5.40;99.90;;;;;;5053077;28;20684;-62
2023/11/25 12:45:32;;;;;;;2.70;2.30;;;5.40;99.90;;;;;;5053197;28;20281;-62
2023/11/25 12:48:00;;;;;;;2.95;2.75;;;5.30;99.90;;;;;;5053020;28;20909;-62
2023/11/25 12:50:29;;;;;;;4.57;2.15;;;5.30;99.90;;;;;;5052493;28;20226;-63
2023/11/25 12:53:05;;;;;;;2.65;2.38;;;5.20;99.90;;;;;;5052549;28;20680;-62
2023/11/25 12:55:37;;;;;;;8.00;2.80;;;5.20;99.90;;;;;;5052747;28;20194;-63
2023/11/25 12:58:10;;;;;;;6.50;3.17;;;5.20;99.90;;;;;;5052926;28;20202;-62
2023/11/25 13:00:37;;;;;;;4.10;2.58;;;5.20;99.90;;;;;;5052989;28;20273;-62
2023/11/25 13:03:07;;;;;;;10.30;3.75;;;5.10;99.90;;;;;;5053026;28;20299;-62